sensor_id;sensor_type;location;lat;lon;timestamp;P1;durP1;ratioP1;P2;durP2;ratioP2
76155;SDS011;64906;51.290;7.348;2023-04-24T00:00:00;18.40;;;11.15;;
76155;SDS011;64906;51.290;7.348;2023-04-24T00:02:26;18.65;;;10.77;;
76155;SDS011;64906;51.290;7.348;2023-04-24T00:04:51;18.50;;;10.93;;
76155;SDS011;64906;51.290;7.348;2023-04-24T00:07:16;18.70;;;11.70;;
76155;SDS011;64906;51.290;7.348;2023-04-24T00:09:42;17.67;;;10.57;;
76155;SDS011;64906;51.290;7.348;2023-04-24T00:12:09;17.20;;;10.73;;
76155;SDS011;64906;51.290;7.348;2023-04-24T00:14:35;16.38;;;10.20;;
76155;SDS011;64906;51.290;7.348;2023-04-24T00:17:01;17.17;;;10.77;;
76155;SDS011;64906;51.290;7.348;2023-04-24T00:19:27;16.92;;;10.65;;
76155;SDS011;64906;51.290;7.348;2023-04-24T00:21:53;16.60;;;10.45;;
76155;SDS011;64906;51.290;7.348;2023-04-24T00:24:19;17.52;;;10.27;;
76155;SDS011;64906;51.290;7.348;2023-04-24T00:26:44;17.33;;;11.52;;
76155;SDS011;64906;51.290;7.348;2023-04-24T00:29:10;17.23;;;10.07;;
76155;SDS011;64906;51.290;7.348;2023-04-24T00:31:35;16.03;;;11.10;;
76155;SDS011;64906;51.290;7.348;2023-04-24T00:34:01;17.37;;;10.10;;
76155;SDS011;64906;51.290;7.348;2023-04-24T00:36:27;17.45;;;9.95;;
76155;SDS011;64906;51.290;7.348;2023-04-24T00:38:53;17.83;;;10.35;;
76155;SDS011;64906;51.290;7.348;2023-04-24T00:41:18;17.83;;;10.32;;
76155;SDS011;64906;51.290;7.348;2023-04-24T00:43:44;16.20;;;9.80;;
76155;SDS011;64906;51.290;7.348;2023-04-24T00:46:09;17.55;;;10.27;;
76155;SDS011;64906;51.290;7.348;2023-04-24T00:48:35;17.52;;;10.65;;
76155;SDS011;64906;51.290;7.348;2023-04-24T00:51:03;17.80;;;10.52;;
76155;SDS011;64906;51.290;7.348;2023-04-24T00:53:29;16.90;;;10.03;;
76155;SDS011;64906;51.290;7.348;2023-04-24T00:55:54;15.98;;;9.32;;
76155;SDS011;64906;51.290;7.348;2023-04-24T00:58:20;15.13;;;9.20;;
76155;SDS011;64906;51.290;7.348;2023-04-24T01:00:45;17.17;;;9.60;;
76155;SDS011;64906;51.290;7.348;2023-04-24T01:03:12;15.57;;;9.60;;
76155;SDS011;64906;51.290;7.348;2023-04-24T01:05:39;17.73;;;10.20;;
76155;SDS011;64906;51.290;7.348;2023-04-24T01:08:04;17.27;;;10.13;;
76155;SDS011;64906;51.290;7.348;2023-04-24T01:10:31;14.10;;;8.93;;
76155;SDS011;64906;51.290;7.348;2023-04-24T01:12:58;16.27;;;9.57;;
76155;SDS011;64906;51.290;7.348;2023-04-24T01:15:23;16.00;;;9.45;;
76155;SDS011;64906;51.290;7.348;2023-04-24T01:17:49;14.17;;;8.97;;
76155;SDS011;64906;51.290;7.348;2023-04-24T01:20:15;15.77;;;9.55;;
76155;SDS011;64906;51.290;7.348;2023-04-24T01:22:40;15.80;;;9.07;;
76155;SDS011;64906;51.290;7.348;2023-04-24T01:25:06;15.50;;;9.13;;
76155;SDS011;64906;51.290;7.348;2023-04-24T01:27:32;13.85;;;8.98;;
76155;SDS011;64906;51.290;7.348;2023-04-24T01:29:58;15.82;;;9.38;;
76155;SDS011;64906;51.290;7.348;2023-04-24T01:32:23;15.07;;;8.88;;
76155;SDS011;64906;51.290;7.348;2023-04-24T01:34:49;13.30;;;8.90;;
76155;SDS011;64906;51.290;7.348;2023-04-24T01:37:15;14.00;;;8.40;;
76155;SDS011;64906;51.290;7.348;2023-04-24T01:39:41;14.73;;;8.95;;
76155;SDS011;64906;51.290;7.348;2023-04-24T01:42:07;14.35;;;8.68;;
76155;SDS011;64906;51.290;7.348;2023-04-24T01:44:33;13.73;;;8.88;;
76155;SDS011;64906;51.290;7.348;2023-04-24T01:47:00;14.27;;;8.63;;
76155;SDS011;64906;51.290;7.348;2023-04-24T01:49:26;13.02;;;8.30;;
76155;SDS011;64906;51.290;7.348;2023-04-24T01:51:52;13.60;;;8.65;;
76155;SDS011;64906;51.290;7.348;2023-04-24T01:54:17;14.00;;;8.55;;
76155;SDS011;64906;51.290;7.348;2023-04-24T01:56:42;14.77;;;9.10;;
76155;SDS011;64906;51.290;7.348;2023-04-24T01:59:12;13.35;;;8.35;;
76155;SDS011;64906;51.290;7.348;2023-04-24T02:01:37;13.30;;;8.38;;
76155;SDS011;64906;51.290;7.348;2023-04-24T02:04:04;14.52;;;9.50;;
76155;SDS011;64906;51.290;7.348;2023-04-24T02:06:30;12.77;;;8.30;;
76155;SDS011;64906;51.290;7.348;2023-04-24T02:08:56;16.20;;;9.38;;
76155;SDS011;64906;51.290;7.348;2023-04-24T02:11:23;12.88;;;7.72;;
76155;SDS011;64906;51.290;7.348;2023-04-24T02:13:49;13.27;;;8.05;;
76155;SDS011;64906;51.290;7.348;2023-04-24T02:16:15;11.48;;;7.57;;
76155;SDS011;64906;51.290;7.348;2023-04-24T02:18:40;12.95;;;8.10;;
76155;SDS011;64906;51.290;7.348;2023-04-24T02:21:06;11.93;;;7.63;;
76155;SDS011;64906;51.290;7.348;2023-04-24T02:23:31;13.47;;;8.13;;
76155;SDS011;64906;51.290;7.348;2023-04-24T02:25:56;13.53;;;8.33;;
76155;SDS011;64906;51.290;7.348;2023-04-24T02:28:21;13.98;;;7.97;;
76155;SDS011;64906;51.290;7.348;2023-04-24T02:30:47;12.03;;;7.53;;
76155;SDS011;64906;51.290;7.348;2023-04-24T02:33:12;12.90;;;7.53;;
76155;SDS011;64906;51.290;7.348;2023-04-24T02:35:38;12.73;;;7.82;;
76155;SDS011;64906;51.290;7.348;2023-04-24T02:38:03;13.30;;;8.50;;
76155;SDS011;64906;51.290;7.348;2023-04-24T02:40:29;12.80;;;8.02;;
76155;SDS011;64906;51.290;7.348;2023-04-24T02:42:54;12.27;;;7.68;;
76155;SDS011;64906;51.290;7.348;2023-04-24T02:45:20;13.38;;;7.72;;
76155;SDS011;64906;51.290;7.348;2023-04-24T02:47:45;12.10;;;7.35;;
76155;SDS011;64906;51.290;7.348;2023-04-24T02:50:11;12.77;;;7.63;;
76155;SDS011;64906;51.290;7.348;2023-04-24T02:52:36;12.83;;;7.90;;
76155;SDS011;64906;51.290;7.348;2023-04-24T02:55:01;12.93;;;7.77;;
76155;SDS011;64906;51.290;7.348;2023-04-24T02:57:27;10.50;;;6.75;;
76155;SDS011;64906;51.290;7.348;2023-04-24T02:59:52;13.07;;;8.07;;
76155;SDS011;64906;51.290;7.348;2023-04-24T03:02:17;12.97;;;7.93;;
76155;SDS011;64906;51.290;7.348;2023-04-24T03:04:43;11.93;;;7.13;;
76155;SDS011;64906;51.290;7.348;2023-04-24T03:07:08;14.10;;;8.10;;
76155;SDS011;64906;51.290;7.348;2023-04-24T03:09:33;11.55;;;7.15;;
76155;SDS011;64906;51.290;7.348;2023-04-24T03:11:59;11.97;;;7.13;;
76155;SDS011;64906;51.290;7.348;2023-04-24T03:14:25;12.50;;;7.10;;
76155;SDS011;64906;51.290;7.348;2023-04-24T03:16:50;13.50;;;7.60;;
76155;SDS011;64906;51.290;7.348;2023-04-24T03:19:15;12.87;;;7.17;;
76155;SDS011;64906;51.290;7.348;2023-04-24T03:21:41;10.93;;;6.67;;
76155;SDS011;64906;51.290;7.348;2023-04-24T03:24:07;13.00;;;6.90;;
76155;SDS011;64906;51.290;7.348;2023-04-24T03:26:33;12.35;;;7.43;;
76155;SDS011;64906;51.290;7.348;2023-04-24T03:28:58;11.77;;;7.20;;
76155;SDS011;64906;51.290;7.348;2023-04-24T03:31:23;12.37;;;6.87;;
76155;SDS011;64906;51.290;7.348;2023-04-24T03:33:49;11.27;;;6.43;;
76155;SDS011;64906;51.290;7.348;2023-04-24T03:36:14;11.97;;;6.77;;
76155;SDS011;64906;51.290;7.348;2023-04-24T03:38:40;10.90;;;6.22;;
76155;SDS011;64906;51.290;7.348;2023-04-24T03:41:05;13.17;;;7.67;;
76155;SDS011;64906;51.290;7.348;2023-04-24T03:43:30;12.37;;;6.60;;
76155;SDS011;64906;51.290;7.348;2023-04-24T03:45:58;10.98;;;5.97;;
76155;SDS011;64906;51.290;7.348;2023-04-24T03:48:23;10.73;;;6.65;;
76155;SDS011;64906;51.290;7.348;2023-04-24T03:50:48;11.17;;;6.57;;
76155;SDS011;64906;51.290;7.348;2023-04-24T03:53:14;9.82;;;6.40;;
76155;SDS011;64906;51.290;7.348;2023-04-24T03:55:40;10.57;;;6.15;;
76155;SDS011;64906;51.290;7.348;2023-04-24T03:58:05;10.43;;;6.13;;
76155;SDS011;64906;51.290;7.348;2023-04-24T04:00:30;10.93;;;7.40;;
76155;SDS011;64906;51.290;7.348;2023-04-24T04:02:57;10.70;;;6.60;;
76155;SDS011;64906;51.290;7.348;2023-04-24T04:05:22;10.25;;;5.97;;
76155;SDS011;64906;51.290;7.348;2023-04-24T04:07:47;10.43;;;6.23;;
76155;SDS011;64906;51.290;7.348;2023-04-24T04:10:13;11.00;;;6.50;;
76155;SDS011;64906;51.290;7.348;2023-04-24T04:12:38;10.73;;;5.93;;
76155;SDS011;64906;51.290;7.348;2023-04-24T04:15:03;10.87;;;6.57;;
76155;SDS011;64906;51.290;7.348;2023-04-24T04:17:30;9.88;;;5.90;;
76155;SDS011;64906;51.290;7.348;2023-04-24T04:19:56;10.80;;;6.13;;
76155;SDS011;64906;51.290;7.348;2023-04-24T04:22:22;9.60;;;5.75;;
76155;SDS011;64906;51.290;7.348;2023-04-24T04:24:47;10.23;;;6.03;;
76155;SDS011;64906;51.290;7.348;2023-04-24T04:27:13;10.40;;;6.30;;
76155;SDS011;64906;51.290;7.348;2023-04-24T04:29:38;9.52;;;5.47;;
76155;SDS011;64906;51.290;7.348;2023-04-24T04:32:04;13.02;;;6.72;;
76155;SDS011;64906;51.290;7.348;2023-04-24T04:34:30;10.88;;;6.28;;
76155;SDS011;64906;51.290;7.348;2023-04-24T04:36:56;9.10;;;5.78;;
76155;SDS011;64906;51.290;7.348;2023-04-24T04:39:24;9.68;;;5.90;;
76155;SDS011;64906;51.290;7.348;2023-04-24T04:41:50;10.75;;;5.88;;
76155;SDS011;64906;51.290;7.348;2023-04-24T04:44:15;10.20;;;6.13;;
76155;SDS011;64906;51.290;7.348;2023-04-24T04:46:41;11.02;;;5.78;;
76155;SDS011;64906;51.290;7.348;2023-04-24T04:49:06;9.93;;;5.53;;
76155;SDS011;64906;51.290;7.348;2023-04-24T04:51:33;8.98;;;5.47;;
76155;SDS011;64906;51.290;7.348;2023-04-24T04:53:59;9.05;;;5.50;;
76155;SDS011;64906;51.290;7.348;2023-04-24T04:56:25;10.25;;;5.88;;
76155;SDS011;64906;51.290;7.348;2023-04-24T04:58:51;11.23;;;6.07;;
76155;SDS011;64906;51.290;7.348;2023-04-24T05:01:16;9.63;;;6.00;;
76155;SDS011;64906;51.290;7.348;2023-04-24T05:03:42;9.30;;;5.72;;
76155;SDS011;64906;51.290;7.348;2023-04-24T05:06:07;9.63;;;5.45;;
76155;SDS011;64906;51.290;7.348;2023-04-24T05:08:33;10.77;;;6.03;;
76155;SDS011;64906;51.290;7.348;2023-04-24T05:10:58;9.23;;;5.65;;
76155;SDS011;64906;51.290;7.348;2023-04-24T05:13:23;10.10;;;5.70;;
76155;SDS011;64906;51.290;7.348;2023-04-24T05:15:49;9.73;;;6.43;;
76155;SDS011;64906;51.290;7.348;2023-04-24T05:18:14;9.70;;;5.70;;
76155;SDS011;64906;51.290;7.348;2023-04-24T05:20:40;10.68;;;5.65;;
76155;SDS011;64906;51.290;7.348;2023-04-24T05:23:07;9.05;;;5.53;;
76155;SDS011;64906;51.290;7.348;2023-04-24T05:25:33;9.03;;;5.63;;
76155;SDS011;64906;51.290;7.348;2023-04-24T05:28:00;9.05;;;5.38;;
76155;SDS011;64906;51.290;7.348;2023-04-24T05:30:26;9.40;;;5.50;;
76155;SDS011;64906;51.290;7.348;2023-04-24T05:32:51;11.00;;;5.90;;
76155;SDS011;64906;51.290;7.348;2023-04-24T05:35:16;9.60;;;5.33;;
76155;SDS011;64906;51.290;7.348;2023-04-24T05:37:43;9.65;;;5.30;;
76155;SDS011;64906;51.290;7.348;2023-04-24T05:40:09;10.10;;;5.27;;
76155;SDS011;64906;51.290;7.348;2023-04-24T05:42:34;11.13;;;5.75;;
76155;SDS011;64906;51.290;7.348;2023-04-24T05:44:59;9.60;;;5.63;;
76155;SDS011;64906;51.290;7.348;2023-04-24T05:47:25;11.63;;;5.97;;
76155;SDS011;64906;51.290;7.348;2023-04-24T05:49:51;10.52;;;5.78;;
76155;SDS011;64906;51.290;7.348;2023-04-24T05:52:16;9.48;;;5.32;;
76155;SDS011;64906;51.290;7.348;2023-04-24T05:54:42;8.90;;;5.17;;
76155;SDS011;64906;51.290;7.348;2023-04-24T05:57:07;9.77;;;5.70;;
76155;SDS011;64906;51.290;7.348;2023-04-24T05:59:33;15.52;;;7.20;;
76155;SDS011;64906;51.290;7.348;2023-04-24T06:01:59;17.92;;;10.80;;
76155;SDS011;64906;51.290;7.348;2023-04-24T06:04:25;21.25;;;11.93;;
76155;SDS011;64906;51.290;7.348;2023-04-24T06:06:50;21.87;;;13.17;;
76155;SDS011;64906;51.290;7.348;2023-04-24T06:09:20;22.70;;;13.60;;
76155;SDS011;64906;51.290;7.348;2023-04-24T06:11:46;24.85;;;15.95;;
76155;SDS011;64906;51.290;7.348;2023-04-24T06:14:11;26.02;;;16.65;;
76155;SDS011;64906;51.290;7.348;2023-04-24T06:16:37;24.00;;;15.23;;
76155;SDS011;64906;51.290;7.348;2023-04-24T06:19:03;23.95;;;14.75;;
76155;SDS011;64906;51.290;7.348;2023-04-24T06:21:29;22.83;;;14.43;;
76155;SDS011;64906;51.290;7.348;2023-04-24T06:23:55;22.05;;;14.50;;
76155;SDS011;64906;51.290;7.348;2023-04-24T06:26:21;22.02;;;14.23;;
76155;SDS011;64906;51.290;7.348;2023-04-24T06:28:47;23.50;;;14.48;;
76155;SDS011;64906;51.290;7.348;2023-04-24T06:31:12;22.83;;;15.25;;
76155;SDS011;64906;51.290;7.348;2023-04-24T06:33:37;23.03;;;13.87;;
76155;SDS011;64906;51.290;7.348;2023-04-24T06:36:03;19.80;;;13.43;;
76155;SDS011;64906;51.290;7.348;2023-04-24T06:38:29;21.00;;;13.30;;
76155;SDS011;64906;51.290;7.348;2023-04-24T06:40:54;20.90;;;13.38;;
76155;SDS011;64906;51.290;7.348;2023-04-24T06:43:20;21.10;;;13.80;;
76155;SDS011;64906;51.290;7.348;2023-04-24T06:45:45;24.92;;;13.95;;
76155;SDS011;64906;51.290;7.348;2023-04-24T06:48:12;22.67;;;13.45;;
76155;SDS011;64906;51.290;7.348;2023-04-24T06:50:37;21.80;;;13.18;;
76155;SDS011;64906;51.290;7.348;2023-04-24T06:53:03;19.38;;;12.50;;
76155;SDS011;64906;51.290;7.348;2023-04-24T06:55:28;22.27;;;13.40;;
76155;SDS011;64906;51.290;7.348;2023-04-24T06:57:53;21.13;;;12.77;;
76155;SDS011;64906;51.290;7.348;2023-04-24T07:00:19;20.90;;;14.00;;
76155;SDS011;64906;51.290;7.348;2023-04-24T07:02:44;20.63;;;12.43;;
76155;SDS011;64906;51.290;7.348;2023-04-24T07:05:09;18.63;;;12.53;;
76155;SDS011;64906;51.290;7.348;2023-04-24T07:07:35;18.60;;;12.00;;
76155;SDS011;64906;51.290;7.348;2023-04-24T07:10:03;18.70;;;12.18;;
76155;SDS011;64906;51.290;7.348;2023-04-24T07:12:29;19.92;;;12.45;;
76155;SDS011;64906;51.290;7.348;2023-04-24T07:14:55;68.03;;;19.50;;
76155;SDS011;64906;51.290;7.348;2023-04-24T07:17:20;59.72;;;16.08;;
76155;SDS011;64906;51.290;7.348;2023-04-24T07:19:46;54.50;;;14.88;;
76155;SDS011;64906;51.290;7.348;2023-04-24T07:22:11;58.78;;;13.95;;
76155;SDS011;64906;51.290;7.348;2023-04-24T07:24:42;50.85;;;13.57;;
76155;SDS011;64906;51.290;7.348;2023-04-24T07:27:08;46.15;;;12.60;;
76155;SDS011;64906;51.290;7.348;2023-04-24T07:29:33;51.05;;;11.70;;
76155;SDS011;64906;51.290;7.348;2023-04-24T07:31:59;41.27;;;10.00;;
76155;SDS011;64906;51.290;7.348;2023-04-24T07:34:24;37.10;;;8.98;;
76155;SDS011;64906;51.290;7.348;2023-04-24T07:36:49;33.03;;;7.87;;
76155;SDS011;64906;51.290;7.348;2023-04-24T07:39:15;32.28;;;7.20;;
76155;SDS011;64906;51.290;7.348;2023-04-24T07:41:40;23.40;;;5.65;;
76155;SDS011;64906;51.290;7.348;2023-04-24T07:44:06;20.15;;;4.60;;
76155;SDS011;64906;51.290;7.348;2023-04-24T07:46:31;17.27;;;3.90;;
76155;SDS011;64906;51.290;7.348;2023-04-24T07:48:57;16.02;;;5.10;;
76155;SDS011;64906;51.290;7.348;2023-04-24T07:51:24;14.15;;;4.18;;
76155;SDS011;64906;51.290;7.348;2023-04-24T07:53:52;15.77;;;4.50;;
76155;SDS011;64906;51.290;7.348;2023-04-24T07:56:18;20.48;;;4.28;;
76155;SDS011;64906;51.290;7.348;2023-04-24T07:58:44;18.55;;;4.68;;
76155;SDS011;64906;51.290;7.348;2023-04-24T08:01:09;16.08;;;4.75;;
76155;SDS011;64906;51.290;7.348;2023-04-24T08:03:35;18.60;;;4.57;;
76155;SDS011;64906;51.290;7.348;2023-04-24T08:06:00;17.40;;;4.43;;
76155;SDS011;64906;51.290;7.348;2023-04-24T08:08:25;17.77;;;4.68;;
76155;SDS011;64906;51.290;7.348;2023-04-24T08:10:51;13.05;;;4.00;;
76155;SDS011;64906;51.290;7.348;2023-04-24T08:13:16;14.45;;;4.28;;
76155;SDS011;64906;51.290;7.348;2023-04-24T08:15:42;15.55;;;4.40;;
76155;SDS011;64906;51.290;7.348;2023-04-24T08:18:07;15.95;;;4.60;;
76155;SDS011;64906;51.290;7.348;2023-04-24T08:20:33;13.60;;;4.03;;
76155;SDS011;64906;51.290;7.348;2023-04-24T08:22:58;14.48;;;4.18;;
76155;SDS011;64906;51.290;7.348;2023-04-24T08:25:23;13.00;;;4.50;;
76155;SDS011;64906;51.290;7.348;2023-04-24T08:27:49;13.07;;;4.30;;
76155;SDS011;64906;51.290;7.348;2023-04-24T08:30:15;11.02;;;4.15;;
76155;SDS011;64906;51.290;7.348;2023-04-24T08:32:41;10.85;;;4.18;;
76155;SDS011;64906;51.290;7.348;2023-04-24T08:35:06;14.27;;;4.30;;
76155;SDS011;64906;51.290;7.348;2023-04-24T08:37:34;12.52;;;4.75;;
76155;SDS011;64906;51.290;7.348;2023-04-24T08:39:59;13.63;;;4.32;;
76155;SDS011;64906;51.290;7.348;2023-04-24T08:42:25;9.30;;;3.72;;
76155;SDS011;64906;51.290;7.348;2023-04-24T08:44:53;8.98;;;3.90;;
76155;SDS011;64906;51.290;7.348;2023-04-24T08:47:19;11.48;;;3.53;;
76155;SDS011;64906;51.290;7.348;2023-04-24T08:49:46;10.30;;;3.97;;
76155;SDS011;64906;51.290;7.348;2023-04-24T08:52:13;11.60;;;3.67;;
76155;SDS011;64906;51.290;7.348;2023-04-24T08:54:38;11.95;;;3.63;;
76155;SDS011;64906;51.290;7.348;2023-04-24T08:57:05;12.63;;;3.60;;
76155;SDS011;64906;51.290;7.348;2023-04-24T08:59:32;10.25;;;3.28;;
76155;SDS011;64906;51.290;7.348;2023-04-24T09:02:00;11.07;;;3.88;;
76155;SDS011;64906;51.290;7.348;2023-04-24T09:04:28;18.08;;;4.45;;
76155;SDS011;64906;51.290;7.348;2023-04-24T09:06:55;10.77;;;4.13;;
76155;SDS011;64906;51.290;7.348;2023-04-24T09:09:22;8.50;;;3.42;;
76155;SDS011;64906;51.290;7.348;2023-04-24T09:11:49;10.77;;;3.90;;
76155;SDS011;64906;51.290;7.348;2023-04-24T09:14:15;13.07;;;3.72;;
76155;SDS011;64906;51.290;7.348;2023-04-24T09:16:42;8.15;;;3.20;;
76155;SDS011;64906;51.290;7.348;2023-04-24T09:19:07;11.53;;;3.60;;
76155;SDS011;64906;51.290;7.348;2023-04-24T09:21:33;11.33;;;3.43;;
76155;SDS011;64906;51.290;7.348;2023-04-24T09:24:00;10.05;;;3.53;;
76155;SDS011;64906;51.290;7.348;2023-04-24T09:26:31;10.70;;;3.60;;
76155;SDS011;64906;51.290;7.348;2023-04-24T09:28:59;13.30;;;3.60;;
76155;SDS011;64906;51.290;7.348;2023-04-24T09:31:26;9.07;;;3.38;;
76155;SDS011;64906;51.290;7.348;2023-04-24T09:33:54;10.82;;;3.50;;
76155;SDS011;64906;51.290;7.348;2023-04-24T09:36:27;11.23;;;3.47;;
76155;SDS011;64906;51.290;7.348;2023-04-24T09:39:03;9.13;;;3.38;;
76155;SDS011;64906;51.290;7.348;2023-04-24T09:41:35;11.70;;;3.90;;
76155;SDS011;64906;51.290;7.348;2023-04-24T09:44:13;9.85;;;3.08;;
76155;SDS011;64906;51.290;7.348;2023-04-24T09:46:41;10.43;;;3.63;;
76155;SDS011;64906;51.290;7.348;2023-04-24T09:49:14;9.85;;;3.20;;
76155;SDS011;64906;51.290;7.348;2023-04-24T09:51:41;10.23;;;3.55;;
76155;SDS011;64906;51.290;7.348;2023-04-24T09:54:13;10.45;;;2.95;;
76155;SDS011;64906;51.290;7.348;2023-04-24T09:56:45;9.13;;;3.25;;
76155;SDS011;64906;51.290;7.348;2023-04-24T09:59:13;8.55;;;3.05;;
76155;SDS011;64906;51.290;7.348;2023-04-24T10:01:39;8.77;;;3.08;;
76155;SDS011;64906;51.290;7.348;2023-04-24T10:04:14;14.50;;;4.15;;
76155;SDS011;64906;51.290;7.348;2023-04-24T10:06:43;13.07;;;3.40;;
76155;SDS011;64906;51.290;7.348;2023-04-24T10:09:09;9.20;;;3.83;;
76155;SDS011;64906;51.290;7.348;2023-04-24T10:11:37;10.23;;;3.90;;
76155;SDS011;64906;51.290;7.348;2023-04-24T10:14:02;8.90;;;3.50;;
76155;SDS011;64906;51.290;7.348;2023-04-24T10:16:28;10.35;;;3.80;;
76155;SDS011;64906;51.290;7.348;2023-04-24T10:18:55;12.43;;;3.90;;
76155;SDS011;64906;51.290;7.348;2023-04-24T10:21:24;9.13;;;3.58;;
76155;SDS011;64906;51.290;7.348;2023-04-24T10:23:51;9.45;;;3.20;;
76155;SDS011;64906;51.290;7.348;2023-04-24T10:26:17;9.07;;;3.50;;
76155;SDS011;64906;51.290;7.348;2023-04-24T10:28:47;11.27;;;3.92;;
76155;SDS011;64906;51.290;7.348;2023-04-24T10:31:13;7.25;;;3.33;;
76155;SDS011;64906;51.290;7.348;2023-04-24T10:33:42;9.30;;;3.42;;
76155;SDS011;64906;51.290;7.348;2023-04-24T10:36:11;9.32;;;3.33;;
76155;SDS011;64906;51.290;7.348;2023-04-24T10:38:39;11.27;;;3.63;;
76155;SDS011;64906;51.290;7.348;2023-04-24T10:41:07;7.80;;;2.97;;
76155;SDS011;64906;51.290;7.348;2023-04-24T10:43:34;8.50;;;3.10;;
76155;SDS011;64906;51.290;7.348;2023-04-24T10:46:04;8.43;;;3.47;;
76155;SDS011;64906;51.290;7.348;2023-04-24T10:48:31;8.90;;;3.55;;
76155;SDS011;64906;51.290;7.348;2023-04-24T10:50:57;9.18;;;3.42;;
76155;SDS011;64906;51.290;7.348;2023-04-24T10:53:23;11.57;;;3.22;;
76155;SDS011;64906;51.290;7.348;2023-04-24T10:56:05;8.00;;;3.42;;
76155;SDS011;64906;51.290;7.348;2023-04-24T10:58:39;8.88;;;3.30;;
76155;SDS011;64906;51.290;7.348;2023-04-24T11:01:09;8.20;;;3.30;;
76155;SDS011;64906;51.290;7.348;2023-04-24T11:03:54;7.57;;;3.40;;
76155;SDS011;64906;51.290;7.348;2023-04-24T11:06:28;8.00;;;3.03;;
76155;SDS011;64906;51.290;7.348;2023-04-24T11:09:01;8.32;;;2.92;;
76155;SDS011;64906;51.290;7.348;2023-04-24T11:18:50;8.07;;;3.28;;
76155;SDS011;64906;51.290;7.348;2023-04-24T11:21:19;6.75;;;3.08;;
76155;SDS011;64906;51.290;7.348;2023-04-24T11:23:45;8.70;;;3.30;;
76155;SDS011;64906;51.290;7.348;2023-04-24T11:26:12;7.85;;;3.47;;
76155;SDS011;64906;51.290;7.348;2023-04-24T11:28:48;9.43;;;3.47;;
76155;SDS011;64906;51.290;7.348;2023-04-24T11:34:14;7.68;;;3.65;;
76155;SDS011;64906;51.290;7.348;2023-04-24T11:36:45;7.25;;;3.63;;
76155;SDS011;64906;51.290;7.348;2023-04-24T11:39:11;9.27;;;3.47;;
76155;SDS011;64906;51.290;7.348;2023-04-24T11:41:37;8.10;;;3.75;;
76155;SDS011;64906;51.290;7.348;2023-04-24T11:44:03;7.43;;;3.65;;
76155;SDS011;64906;51.290;7.348;2023-04-24T11:46:31;7.75;;;3.60;;
76155;SDS011;64906;51.290;7.348;2023-04-24T11:48:57;9.88;;;3.78;;
76155;SDS011;64906;51.290;7.348;2023-04-24T11:51:23;9.20;;;3.40;;
76155;SDS011;64906;51.290;7.348;2023-04-24T11:53:53;6.82;;;3.42;;
76155;SDS011;64906;51.290;7.348;2023-04-24T11:56:23;8.05;;;3.63;;
76155;SDS011;64906;51.290;7.348;2023-04-24T11:58:51;10.57;;;5.10;;
76155;SDS011;64906;51.290;7.348;2023-04-24T12:01:17;12.32;;;4.93;;
76155;SDS011;64906;51.290;7.348;2023-04-24T12:03:47;13.50;;;6.07;;
76155;SDS011;64906;51.290;7.348;2023-04-24T12:06:13;19.20;;;6.90;;
76155;SDS011;64906;51.290;7.348;2023-04-24T12:08:38;13.73;;;7.72;;
76155;SDS011;64906;51.290;7.348;2023-04-24T12:11:05;17.40;;;9.95;;
76155;SDS011;64906;51.290;7.348;2023-04-24T12:13:34;19.52;;;9.70;;
76155;SDS011;64906;51.290;7.348;2023-04-24T12:16:04;19.50;;;10.63;;
76155;SDS011;64906;51.290;7.348;2023-04-24T12:18:30;22.95;;;13.43;;
76155;SDS011;64906;51.290;7.348;2023-04-24T12:21:14;21.05;;;12.70;;
76155;SDS011;64906;51.290;7.348;2023-04-24T12:23:46;20.65;;;13.00;;
76155;SDS011;64906;51.290;7.348;2023-04-24T12:26:20;22.83;;;14.38;;
76155;SDS011;64906;51.290;7.348;2023-04-24T12:28:48;26.67;;;14.93;;
76155;SDS011;64906;51.290;7.348;2023-04-24T12:31:14;24.40;;;15.68;;
76155;SDS011;64906;51.290;7.348;2023-04-24T12:33:40;24.77;;;15.68;;
76155;SDS011;64906;51.290;7.348;2023-04-24T12:36:06;28.10;;;15.63;;
76155;SDS011;64906;51.290;7.348;2023-04-24T12:38:35;25.75;;;15.57;;
76155;SDS011;64906;51.290;7.348;2023-04-24T12:41:06;27.73;;;14.65;;
76155;SDS011;64906;51.290;7.348;2023-04-24T12:43:33;24.67;;;14.57;;
76155;SDS011;64906;51.290;7.348;2023-04-24T12:45:58;26.10;;;16.45;;
76155;SDS011;64906;51.290;7.348;2023-04-24T12:48:24;29.00;;;16.90;;
76155;SDS011;64906;51.290;7.348;2023-04-24T12:50:50;25.88;;;14.35;;
76155;SDS011;64906;51.290;7.348;2023-04-24T12:53:16;23.73;;;15.00;;
76155;SDS011;64906;51.290;7.348;2023-04-24T12:55:41;24.63;;;15.80;;
76155;SDS011;64906;51.290;7.348;2023-04-24T12:58:07;22.55;;;14.40;;
76155;SDS011;64906;51.290;7.348;2023-04-24T13:00:32;23.92;;;14.73;;
76155;SDS011;64906;51.290;7.348;2023-04-24T13:02:58;22.67;;;14.45;;
76155;SDS011;64906;51.290;7.348;2023-04-24T13:05:24;23.90;;;14.23;;
76155;SDS011;64906;51.290;7.348;2023-04-24T13:07:50;25.17;;;13.95;;
76155;SDS011;64906;51.290;7.348;2023-04-24T13:10:15;24.15;;;14.73;;
76155;SDS011;64906;51.290;7.348;2023-04-24T13:12:40;19.83;;;13.43;;
76155;SDS011;64906;51.290;7.348;2023-04-24T13:15:06;23.63;;;14.07;;
76155;SDS011;64906;51.290;7.348;2023-04-24T13:17:32;21.95;;;15.15;;
76155;SDS011;64906;51.290;7.348;2023-04-24T13:19:58;24.30;;;14.57;;
76155;SDS011;64906;51.290;7.348;2023-04-24T13:22:24;21.80;;;14.25;;
76155;SDS011;64906;51.290;7.348;2023-04-24T13:24:50;21.33;;;15.50;;
76155;SDS011;64906;51.290;7.348;2023-04-24T13:27:15;24.80;;;13.75;;
76155;SDS011;64906;51.290;7.348;2023-04-24T13:29:41;22.00;;;13.63;;
76155;SDS011;64906;51.290;7.348;2023-04-24T13:32:07;20.97;;;14.17;;
76155;SDS011;64906;51.290;7.348;2023-04-24T13:34:33;22.08;;;13.60;;
76155;SDS011;64906;51.290;7.348;2023-04-24T13:37:00;19.38;;;12.85;;
76155;SDS011;64906;51.290;7.348;2023-04-24T13:39:26;27.48;;;13.10;;
76155;SDS011;64906;51.290;7.348;2023-04-24T13:41:51;22.52;;;12.88;;
76155;SDS011;64906;51.290;7.348;2023-04-24T13:44:18;18.83;;;12.35;;
76155;SDS011;64906;51.290;7.348;2023-04-24T13:46:45;21.17;;;12.52;;
76155;SDS011;64906;51.290;7.348;2023-04-24T13:49:12;19.88;;;12.63;;
76155;SDS011;64906;51.290;7.348;2023-04-24T13:51:38;20.98;;;13.18;;
76155;SDS011;64906;51.290;7.348;2023-04-24T13:54:03;21.00;;;13.48;;
76155;SDS011;64906;51.290;7.348;2023-04-24T13:56:29;20.27;;;12.73;;
76155;SDS011;64906;51.290;7.348;2023-04-24T13:58:54;20.10;;;13.37;;
76155;SDS011;64906;51.290;7.348;2023-04-24T14:01:20;20.98;;;14.45;;
76155;SDS011;64906;51.290;7.348;2023-04-24T14:03:49;20.58;;;13.98;;
76155;SDS011;64906;51.290;7.348;2023-04-24T14:06:15;19.20;;;11.50;;
76155;SDS011;64906;51.290;7.348;2023-04-24T14:08:40;18.87;;;12.03;;
76155;SDS011;64906;51.290;7.348;2023-04-24T14:11:05;17.47;;;11.73;;
76155;SDS011;64906;51.290;7.348;2023-04-24T14:13:30;21.33;;;12.47;;
76155;SDS011;64906;51.290;7.348;2023-04-24T14:15:56;19.48;;;12.10;;
76155;SDS011;64906;51.290;7.348;2023-04-24T14:18:22;20.38;;;12.50;;
76155;SDS011;64906;51.290;7.348;2023-04-24T14:20:48;18.30;;;12.13;;
76155;SDS011;64906;51.290;7.348;2023-04-24T14:23:13;21.17;;;11.90;;
76155;SDS011;64906;51.290;7.348;2023-04-24T14:25:38;19.70;;;12.33;;
76155;SDS011;64906;51.290;7.348;2023-04-24T14:28:05;20.67;;;11.60;;
76155;SDS011;64906;51.290;7.348;2023-04-24T14:30:30;18.33;;;12.10;;
76155;SDS011;64906;51.290;7.348;2023-04-24T14:32:56;19.07;;;12.07;;
76155;SDS011;64906;51.290;7.348;2023-04-24T14:35:21;18.67;;;11.83;;
76155;SDS011;64906;51.290;7.348;2023-04-24T14:37:46;17.65;;;11.63;;